sensor_id;sensor_type;location;lat;lon;timestamp;P1;durP1;ratioP1;P2;durP2;ratioP2
55328;SDS011;41205;44.264;19.884;2023-12-20T00:01:05;146.60;;;76.03;;
55328;SDS011;41205;44.264;19.884;2023-12-20T00:03:30;48.63;;;29.23;;
55328;SDS011;41205;44.264;19.884;2023-12-20T00:05:56;107.72;;;60.53;;
55328;SDS011;41205;44.264;19.884;2023-12-20T00:08:22;92.70;;;53.72;;
55328;SDS011;41205;44.264;19.884;2023-12-20T00:10:48;69.35;;;42.33;;
55328;SDS011;41205;44.264;19.884;2023-12-20T00:13:13;102.40;;;58.70;;
55328;SDS011;41205;44.264;19.884;2023-12-20T00:15:39;63.08;;;32.83;;
55328;SDS011;41205;44.264;19.884;2023-12-20T00:18:05;50.50;;;30.13;;
55328;SDS011;41205;44.264;19.884;2023-12-20T00:20:31;58.95;;;32.30;;
55328;SDS011;41205;44.264;19.884;2023-12-20T00:22:57;134.27;;;65.88;;
55328;SDS011;41205;44.264;19.884;2023-12-20T00:25:23;44.47;;;24.75;;
55328;SDS011;41205;44.264;19.884;2023-12-20T00:27:49;34.78;;;21.60;;
55328;SDS011;41205;44.264;19.884;2023-12-20T00:30:15;180.50;;;99.47;;
55328;SDS011;41205;44.264;19.884;2023-12-20T00:32:41;102.20;;;59.80;;
55328;SDS011;41205;44.264;19.884;2023-12-20T00:35:13;151.32;;;80.68;;
55328;SDS011;41205;44.264;19.884;2023-12-20T00:37:39;154.65;;;86.70;;
55328;SDS011;41205;44.264;19.884;2023-12-20T00:40:05;61.33;;;34.83;;
55328;SDS011;41205;44.264;19.884;2023-12-20T00:42:32;67.97;;;36.88;;
55328;SDS011;41205;44.264;19.884;2023-12-20T00:44:59;123.38;;;65.55;;
55328;SDS011;41205;44.264;19.884;2023-12-20T00:47:25;79.80;;;46.40;;
55328;SDS011;41205;44.264;19.884;2023-12-20T00:49:51;58.75;;;33.03;;
55328;SDS011;41205;44.264;19.884;2023-12-20T00:52:17;205.75;;;108.35;;
55328;SDS011;41205;44.264;19.884;2023-12-20T00:54:43;54.60;;;29.95;;
55328;SDS011;41205;44.264;19.884;2023-12-20T00:57:09;134.38;;;67.95;;
55328;SDS011;41205;44.264;19.884;2023-12-20T00:59:35;129.88;;;70.95;;
55328;SDS011;41205;44.264;19.884;2023-12-20T01:02:01;31.15;;;15.73;;
55328;SDS011;41205;44.264;19.884;2023-12-20T01:04:27;13.77;;;9.25;;
55328;SDS011;41205;44.264;19.884;2023-12-20T01:06:53;70.18;;;37.92;;
55328;SDS011;41205;44.264;19.884;2023-12-20T01:09:19;16.02;;;9.48;;
55328;SDS011;41205;44.264;19.884;2023-12-20T01:11:45;27.88;;;17.27;;
55328;SDS011;41205;44.264;19.884;2023-12-20T01:14:13;27.88;;;17.25;;
55328;SDS011;41205;44.264;19.884;2023-12-20T01:16:39;47.80;;;30.40;;
55328;SDS011;41205;44.264;19.884;2023-12-20T01:19:05;28.15;;;18.17;;
55328;SDS011;41205;44.264;19.884;2023-12-20T01:21:31;22.63;;;14.32;;
55328;SDS011;41205;44.264;19.884;2023-12-20T01:23:57;37.40;;;22.27;;
55328;SDS011;41205;44.264;19.884;2023-12-20T01:26:23;16.48;;;11.13;;
55328;SDS011;41205;44.264;19.884;2023-12-20T01:28:49;26.60;;;13.88;;
55328;SDS011;41205;44.264;19.884;2023-12-20T01:31:14;43.35;;;24.80;;
55328;SDS011;41205;44.264;19.884;2023-12-20T01:33:40;42.55;;;26.58;;
55328;SDS011;41205;44.264;19.884;2023-12-20T01:36:06;57.45;;;32.83;;
55328;SDS011;41205;44.264;19.884;2023-12-20T01:38:31;52.80;;;32.38;;
55328;SDS011;41205;44.264;19.884;2023-12-20T01:40:57;39.20;;;24.73;;
55328;SDS011;41205;44.264;19.884;2023-12-20T01:43:24;17.70;;;10.45;;
55328;SDS011;41205;44.264;19.884;2023-12-20T01:45:50;20.20;;;11.57;;
55328;SDS011;41205;44.264;19.884;2023-12-20T01:48:16;29.55;;;18.10;;
55328;SDS011;41205;44.264;19.884;2023-12-20T01:50:43;25.58;;;14.82;;
55328;SDS011;41205;44.264;19.884;2023-12-20T01:53:10;21.88;;;13.32;;
55328;SDS011;41205;44.264;19.884;2023-12-20T01:55:39;25.30;;;16.77;;
55328;SDS011;41205;44.264;19.884;2023-12-20T01:58:06;17.88;;;11.98;;
55328;SDS011;41205;44.264;19.884;2023-12-20T02:00:33;20.80;;;12.07;;
55328;SDS011;41205;44.264;19.884;2023-12-20T02:03:00;13.48;;;10.15;;
55328;SDS011;41205;44.264;19.884;2023-12-20T02:05:27;17.88;;;11.23;;
55328;SDS011;41205;44.264;19.884;2023-12-20T02:07:54;20.35;;;12.32;;
55328;SDS011;41205;44.264;19.884;2023-12-20T02:10:20;14.48;;;10.00;;
55328;SDS011;41205;44.264;19.884;2023-12-20T02:12:46;19.00;;;11.80;;
55328;SDS011;41205;44.264;19.884;2023-12-20T02:15:12;39.47;;;19.92;;
55328;SDS011;41205;44.264;19.884;2023-12-20T02:17:38;33.15;;;17.88;;
55328;SDS011;41205;44.264;19.884;2023-12-20T02:20:05;20.15;;;11.15;;
55328;SDS011;41205;44.264;19.884;2023-12-20T02:22:31;42.72;;;32.08;;
55328;SDS011;41205;44.264;19.884;2023-12-20T02:24:57;16.70;;;12.27;;
55328;SDS011;41205;44.264;19.884;2023-12-20T02:27:23;14.35;;;8.52;;
55328;SDS011;41205;44.264;19.884;2023-12-20T02:29:49;17.42;;;10.07;;
55328;SDS011;41205;44.264;19.884;2023-12-20T02:32:15;26.48;;;18.23;;
55328;SDS011;41205;44.264;19.884;2023-12-20T02:34:45;30.15;;;17.88;;
55328;SDS011;41205;44.264;19.884;2023-12-20T02:37:12;19.77;;;11.95;;
55328;SDS011;41205;44.264;19.884;2023-12-20T02:39:38;18.00;;;10.60;;
55328;SDS011;41205;44.264;19.884;2023-12-20T02:42:04;22.20;;;14.35;;
55328;SDS011;41205;44.264;19.884;2023-12-20T02:44:29;14.13;;;10.15;;
55328;SDS011;41205;44.264;19.884;2023-12-20T02:46:55;15.05;;;9.13;;
55328;SDS011;41205;44.264;19.884;2023-12-20T02:49:21;18.20;;;10.90;;
55328;SDS011;41205;44.264;19.884;2023-12-20T02:51:47;21.17;;;13.32;;
55328;SDS011;41205;44.264;19.884;2023-12-20T02:54:13;24.83;;;14.05;;
55328;SDS011;41205;44.264;19.884;2023-12-20T02:56:39;27.10;;;17.10;;
55328;SDS011;41205;44.264;19.884;2023-12-20T02:59:05;21.80;;;14.85;;
55328;SDS011;41205;44.264;19.884;2023-12-20T03:01:31;23.45;;;15.25;;
55328;SDS011;41205;44.264;19.884;2023-12-20T03:03:58;29.02;;;16.55;;
55328;SDS011;41205;44.264;19.884;2023-12-20T03:06:24;33.05;;;19.83;;
55328;SDS011;41205;44.264;19.884;2023-12-20T03:08:50;38.47;;;26.60;;
55328;SDS011;41205;44.264;19.884;2023-12-20T03:11:15;47.85;;;30.35;;
55328;SDS011;41205;44.264;19.884;2023-12-20T03:13:41;40.20;;;26.45;;
55328;SDS011;41205;44.264;19.884;2023-12-20T03:16:10;35.20;;;22.63;;
55328;SDS011;41205;44.264;19.884;2023-12-20T03:18:37;39.75;;;24.52;;
55328;SDS011;41205;44.264;19.884;2023-12-20T03:21:03;31.27;;;22.25;;
55328;SDS011;41205;44.264;19.884;2023-12-20T03:23:29;30.95;;;20.88;;
55328;SDS011;41205;44.264;19.884;2023-12-20T03:25:57;44.38;;;27.80;;
55328;SDS011;41205;44.264;19.884;2023-12-20T03:28:23;44.00;;;25.35;;
55328;SDS011;41205;44.264;19.884;2023-12-20T03:30:49;33.70;;;21.20;;
55328;SDS011;41205;44.264;19.884;2023-12-20T03:33:15;90.70;;;55.75;;
55328;SDS011;41205;44.264;19.884;2023-12-20T03:35:40;56.45;;;33.67;;
55328;SDS011;41205;44.264;19.884;2023-12-20T03:38:06;36.25;;;23.83;;
55328;SDS011;41205;44.264;19.884;2023-12-20T03:40:32;29.08;;;18.83;;
55328;SDS011;41205;44.264;19.884;2023-12-20T03:42:58;27.50;;;17.83;;
55328;SDS011;41205;44.264;19.884;2023-12-20T03:45:24;26.98;;;15.80;;
55328;SDS011;41205;44.264;19.884;2023-12-20T03:47:50;22.45;;;14.07;;
55328;SDS011;41205;44.264;19.884;2023-12-20T03:50:20;33.15;;;19.38;;
55328;SDS011;41205;44.264;19.884;2023-12-20T03:52:47;34.05;;;20.10;;
55328;SDS011;41205;44.264;19.884;2023-12-20T03:55:13;31.83;;;19.70;;
55328;SDS011;41205;44.264;19.884;2023-12-20T03:57:39;29.30;;;18.63;;
55328;SDS011;41205;44.264;19.884;2023-12-20T04:00:05;18.00;;;11.98;;
55328;SDS011;41205;44.264;19.884;2023-12-20T04:02:36;18.77;;;13.13;;
55328;SDS011;41205;44.264;19.884;2023-12-20T04:05:02;14.20;;;8.68;;
55328;SDS011;41205;44.264;19.884;2023-12-20T04:07:28;14.95;;;6.78;;
55328;SDS011;41205;44.264;19.884;2023-12-20T04:09:54;11.68;;;7.15;;
55328;SDS011;41205;44.264;19.884;2023-12-20T04:12:20;31.15;;;14.70;;
55328;SDS011;41205;44.264;19.884;2023-12-20T04:14:46;33.03;;;16.88;;
55328;SDS011;41205;44.264;19.884;2023-12-20T04:17:13;14.38;;;9.73;;
55328;SDS011;41205;44.264;19.884;2023-12-20T04:19:41;13.90;;;7.47;;
55328;SDS011;41205;44.264;19.884;2023-12-20T04:22:07;10.20;;;5.75;;
55328;SDS011;41205;44.264;19.884;2023-12-20T04:24:32;8.60;;;5.35;;
55328;SDS011;41205;44.264;19.884;2023-12-20T04:26:58;9.52;;;5.68;;
55328;SDS011;41205;44.264;19.884;2023-12-20T04:29:24;8.38;;;5.03;;
55328;SDS011;41205;44.264;19.884;2023-12-20T04:31:50;19.40;;;10.57;;
55328;SDS011;41205;44.264;19.884;2023-12-20T04:34:17;21.55;;;12.43;;
55328;SDS011;41205;44.264;19.884;2023-12-20T04:36:42;35.85;;;20.00;;
55328;SDS011;41205;44.264;19.884;2023-12-20T04:39:08;42.45;;;20.58;;
55328;SDS011;41205;44.264;19.884;2023-12-20T04:41:34;58.60;;;32.45;;
55328;SDS011;41205;44.264;19.884;2023-12-20T04:44:00;13.07;;;8.00;;
55328;SDS011;41205;44.264;19.884;2023-12-20T04:46:27;9.68;;;5.15;;
55328;SDS011;41205;44.264;19.884;2023-12-20T04:48:52;11.40;;;5.07;;
55328;SDS011;41205;44.264;19.884;2023-12-20T04:51:18;52.35;;;29.75;;
55328;SDS011;41205;44.264;19.884;2023-12-20T04:53:44;27.27;;;15.20;;
55328;SDS011;41205;44.264;19.884;2023-12-20T04:56:10;20.55;;;11.15;;
55328;SDS011;41205;44.264;19.884;2023-12-20T04:58:35;40.55;;;21.20;;
55328;SDS011;41205;44.264;19.884;2023-12-20T05:01:01;11.70;;;7.05;;
55328;SDS011;41205;44.264;19.884;2023-12-20T05:03:28;11.77;;;6.80;;
55328;SDS011;41205;44.264;19.884;2023-12-20T05:05:54;33.00;;;18.88;;
55328;SDS011;41205;44.264;19.884;2023-12-20T05:08:19;45.00;;;26.23;;
55328;SDS011;41205;44.264;19.884;2023-12-20T05:10:45;45.95;;;27.42;;
55328;SDS011;41205;44.264;19.884;2023-12-20T05:13:11;44.72;;;25.77;;
55328;SDS011;41205;44.264;19.884;2023-12-20T05:15:37;24.73;;;15.82;;
55328;SDS011;41205;44.264;19.884;2023-12-20T05:18:02;22.48;;;13.00;;
55328;SDS011;41205;44.264;19.884;2023-12-20T05:20:28;33.20;;;29.83;;
55328;SDS011;41205;44.264;19.884;2023-12-20T05:22:54;24.48;;;15.85;;
55328;SDS011;41205;44.264;19.884;2023-12-20T05:25:20;8.10;;;6.07;;
55328;SDS011;41205;44.264;19.884;2023-12-20T05:27:46;15.73;;;5.25;;
55328;SDS011;41205;44.264;19.884;2023-12-20T05:30:11;13.57;;;6.40;;
55328;SDS011;41205;44.264;19.884;2023-12-20T05:32:37;8.52;;;5.45;;
55328;SDS011;41205;44.264;19.884;2023-12-20T05:35:03;12.52;;;6.05;;
55328;SDS011;41205;44.264;19.884;2023-12-20T05:37:29;11.82;;;5.18;;
55328;SDS011;41205;44.264;19.884;2023-12-20T05:39:55;9.50;;;4.93;;
55328;SDS011;41205;44.264;19.884;2023-12-20T05:42:20;13.63;;;7.68;;
55328;SDS011;41205;44.264;19.884;2023-12-20T05:44:46;14.55;;;7.22;;
55328;SDS011;41205;44.264;19.884;2023-12-20T05:47:12;9.25;;;5.97;;
55328;SDS011;41205;44.264;19.884;2023-12-20T05:49:39;8.27;;;5.20;;
55328;SDS011;41205;44.264;19.884;2023-12-20T05:52:05;18.17;;;10.77;;
55328;SDS011;41205;44.264;19.884;2023-12-20T05:54:30;14.38;;;6.32;;
55328;SDS011;41205;44.264;19.884;2023-12-20T05:56:56;17.83;;;9.25;;
55328;SDS011;41205;44.264;19.884;2023-12-20T05:59:22;9.98;;;5.10;;
55328;SDS011;41205;44.264;19.884;2023-12-20T06:01:49;7.13;;;4.20;;
55328;SDS011;41205;44.264;19.884;2023-12-20T06:04:14;5.50;;;3.85;;
55328;SDS011;41205;44.264;19.884;2023-12-20T06:06:41;15.20;;;8.43;;
55328;SDS011;41205;44.264;19.884;2023-12-20T06:09:07;11.30;;;7.15;;
55328;SDS011;41205;44.264;19.884;2023-12-20T06:11:33;11.65;;;7.53;;
55328;SDS011;41205;44.264;19.884;2023-12-20T06:13:59;28.00;;;14.10;;
55328;SDS011;41205;44.264;19.884;2023-12-20T06:16:24;30.77;;;17.65;;
55328;SDS011;41205;44.264;19.884;2023-12-20T06:18:50;12.85;;;7.78;;
55328;SDS011;41205;44.264;19.884;2023-12-20T06:21:16;10.90;;;6.43;;
55328;SDS011;41205;44.264;19.884;2023-12-20T06:23:42;13.73;;;8.35;;
55328;SDS011;41205;44.264;19.884;2023-12-20T06:26:09;23.70;;;12.90;;
55328;SDS011;41205;44.264;19.884;2023-12-20T06:28:34;176.27;;;105.72;;
55328;SDS011;41205;44.264;19.884;2023-12-20T06:31:00;23.20;;;13.82;;
55328;SDS011;41205;44.264;19.884;2023-12-20T06:33:26;15.50;;;9.55;;
55328;SDS011;41205;44.264;19.884;2023-12-20T06:35:52;11.75;;;8.35;;
55328;SDS011;41205;44.264;19.884;2023-12-20T06:38:18;15.40;;;10.85;;
55328;SDS011;41205;44.264;19.884;2023-12-20T06:40:44;9.10;;;5.63;;
55328;SDS011;41205;44.264;19.884;2023-12-20T06:43:10;11.65;;;7.93;;
55328;SDS011;41205;44.264;19.884;2023-12-20T06:45:37;197.13;;;110.53;;
55328;SDS011;41205;44.264;19.884;2023-12-20T06:48:03;178.15;;;113.38;;
55328;SDS011;41205;44.264;19.884;2023-12-20T06:50:29;113.10;;;70.78;;
55328;SDS011;41205;44.264;19.884;2023-12-20T06:52:54;99.10;;;57.15;;
55328;SDS011;41205;44.264;19.884;2023-12-20T06:55:20;134.35;;;82.07;;
55328;SDS011;41205;44.264;19.884;2023-12-20T06:57:46;115.13;;;69.43;;
55328;SDS011;41205;44.264;19.884;2023-12-20T07:00:12;107.20;;;66.60;;
55328;SDS011;41205;44.264;19.884;2023-12-20T07:02:38;99.13;;;63.75;;
55328;SDS011;41205;44.264;19.884;2023-12-20T07:05:04;88.78;;;54.58;;
55328;SDS011;41205;44.264;19.884;2023-12-20T07:07:30;60.47;;;40.10;;
55328;SDS011;41205;44.264;19.884;2023-12-20T07:09:55;46.30;;;29.38;;
55328;SDS011;41205;44.264;19.884;2023-12-20T07:12:21;38.83;;;24.63;;
55328;SDS011;41205;44.264;19.884;2023-12-20T07:14:47;88.18;;;53.08;;
55328;SDS011;41205;44.264;19.884;2023-12-20T07:17:13;89.05;;;49.78;;
55328;SDS011;41205;44.264;19.884;2023-12-20T07:19:40;23.52;;;16.33;;
55328;SDS011;41205;44.264;19.884;2023-12-20T07:22:06;31.55;;;18.02;;
55328;SDS011;41205;44.264;19.884;2023-12-20T07:24:33;45.97;;;27.15;;
55328;SDS011;41205;44.264;19.884;2023-12-20T07:26:59;20.08;;;11.00;;
55328;SDS011;41205;44.264;19.884;2023-12-20T07:29:25;22.67;;;14.77;;
55328;SDS011;41205;44.264;19.884;2023-12-20T07:31:52;67.13;;;40.38;;
55328;SDS011;41205;44.264;19.884;2023-12-20T07:34:19;48.45;;;30.77;;
55328;SDS011;41205;44.264;19.884;2023-12-20T07:36:45;22.52;;;14.60;;
55328;SDS011;41205;44.264;19.884;2023-12-20T07:39:11;16.63;;;10.15;;
55328;SDS011;41205;44.264;19.884;2023-12-20T07:41:36;31.35;;;20.13;;
55328;SDS011;41205;44.264;19.884;2023-12-20T07:44:04;31.77;;;19.77;;
55328;SDS011;41205;44.264;19.884;2023-12-20T07:46:29;95.05;;;60.50;;
55328;SDS011;41205;44.264;19.884;2023-12-20T07:48:55;89.28;;;52.35;;
55328;SDS011;41205;44.264;19.884;2023-12-20T07:51:21;131.90;;;78.40;;
55328;SDS011;41205;44.264;19.884;2023-12-20T07:53:47;176.52;;;107.68;;
55328;SDS011;41205;44.264;19.884;2023-12-20T07:56:16;42.28;;;26.13;;
55328;SDS011;41205;44.264;19.884;2023-12-20T07:58:43;28.00;;;17.00;;
55328;SDS011;41205;44.264;19.884;2023-12-20T08:01:10;28.92;;;18.65;;
55328;SDS011;41205;44.264;19.884;2023-12-20T08:03:36;28.15;;;18.17;;
55328;SDS011;41205;44.264;19.884;2023-12-20T08:06:02;20.38;;;13.60;;
55328;SDS011;41205;44.264;19.884;2023-12-20T08:08:28;58.17;;;36.88;;
55328;SDS011;41205;44.264;19.884;2023-12-20T08:10:54;57.92;;;37.35;;
55328;SDS011;41205;44.264;19.884;2023-12-20T08:13:20;36.60;;;25.58;;
55328;SDS011;41205;44.264;19.884;2023-12-20T08:15:50;30.35;;;20.20;;
55328;SDS011;41205;44.264;19.884;2023-12-20T08:18:15;36.95;;;26.70;;
55328;SDS011;41205;44.264;19.884;2023-12-20T08:20:41;15.82;;;10.90;;
55328;SDS011;41205;44.264;19.884;2023-12-20T08:23:07;14.05;;;10.55;;
55328;SDS011;41205;44.264;19.884;2023-12-20T08:25:33;22.13;;;12.45;;
55328;SDS011;41205;44.264;19.884;2023-12-20T08:27:58;76.32;;;46.67;;
55328;SDS011;41205;44.264;19.884;2023-12-20T08:30:24;39.38;;;24.77;;
55328;SDS011;41205;44.264;19.884;2023-12-20T08:32:50;28.20;;;19.70;;
55328;SDS011;41205;44.264;19.884;2023-12-20T08:35:16;30.40;;;19.00;;
55328;SDS011;41205;44.264;19.884;2023-12-20T08:37:43;47.65;;;30.65;;
55328;SDS011;41205;44.264;19.884;2023-12-20T08:40:08;54.78;;;38.10;;
55328;SDS011;41205;44.264;19.884;2023-12-20T08:42:35;107.53;;;78.20;;
55328;SDS011;41205;44.264;19.884;2023-12-20T08:45:00;42.17;;;33.25;;
55328;SDS011;41205;44.264;19.884;2023-12-20T08:47:28;43.95;;;34.05;;
55328;SDS011;41205;44.264;19.884;2023-12-20T08:49:54;52.72;;;41.90;;
55328;SDS011;41205;44.264;19.884;2023-12-20T08:52:25;47.55;;;38.15;;
55328;SDS011;41205;44.264;19.884;2023-12-20T08:54:52;29.83;;;24.63;;
55328;SDS011;41205;44.264;19.884;2023-12-20T08:57:22;73.68;;;52.63;;
55328;SDS011;41205;44.264;19.884;2023-12-20T08:59:51;234.02;;;177.07;;
55328;SDS011;41205;44.264;19.884;2023-12-20T09:02:17;498.90;;;407.35;;
55328;SDS011;41205;44.264;19.884;2023-12-20T09:04:43;417.63;;;320.63;;
55328;SDS011;41205;44.264;19.884;2023-12-20T09:07:24;329.50;;;267.98;;
55328;SDS011;41205;44.264;19.884;2023-12-20T09:09:51;455.60;;;367.60;;
55328;SDS011;41205;44.264;19.884;2023-12-20T09:12:20;322.60;;;248.60;;
55328;SDS011;41205;44.264;19.884;2023-12-20T09:14:46;208.20;;;158.70;;
55328;SDS011;41205;44.264;19.884;2023-12-20T09:17:13;226.93;;;174.85;;
55328;SDS011;41205;44.264;19.884;2023-12-20T09:19:39;271.80;;;225.00;;
55328;SDS011;41205;44.264;19.884;2023-12-20T09:22:06;182.65;;;141.40;;
55328;SDS011;41205;44.264;19.884;2023-12-20T09:24:32;141.63;;;110.78;;
55328;SDS011;41205;44.264;19.884;2023-12-20T09:26:58;194.00;;;149.50;;
55328;SDS011;41205;44.264;19.884;2023-12-20T09:29:24;343.40;;;255.07;;
55328;SDS011;41205;44.264;19.884;2023-12-20T09:31:50;322.40;;;242.10;;
55328;SDS011;41205;44.264;19.884;2023-12-20T09:34:16;292.85;;;229.38;;
55328;SDS011;41205;44.264;19.884;2023-12-20T09:36:44;216.82;;;171.75;;
55328;SDS011;41205;44.264;19.884;2023-12-20T09:39:17;196.32;;;159.10;;
55328;SDS011;41205;44.264;19.884;2023-12-20T09:42:03;189.13;;;149.20;;
55328;SDS011;41205;44.264;19.884;2023-12-20T09:44:30;201.75;;;149.60;;
55328;SDS011;41205;44.264;19.884;2023-12-20T09:46:57;268.27;;;208.63;;
55328;SDS011;41205;44.264;19.884;2023-12-20T09:49:22;317.13;;;239.27;;
55328;SDS011;41205;44.264;19.884;2023-12-20T09:51:51;399.35;;;299.63;;
55328;SDS011;41205;44.264;19.884;2023-12-20T09:54:18;405.70;;;287.60;;
55328;SDS011;41205;44.264;19.884;2023-12-20T09:56:45;389.45;;;277.83;;
55328;SDS011;41205;44.264;19.884;2023-12-20T09:59:11;183.00;;;132.95;;
55328;SDS011;41205;44.264;19.884;2023-12-20T10:01:38;269.52;;;181.95;;
55328;SDS011;41205;44.264;19.884;2023-12-20T10:04:06;300.65;;;224.32;;
55328;SDS011;41205;44.264;19.884;2023-12-20T10:06:36;322.30;;;224.52;;
55328;SDS011;41205;44.264;19.884;2023-12-20T10:09:04;321.98;;;229.65;;
55328;SDS011;41205;44.264;19.884;2023-12-20T10:11:30;353.90;;;237.85;;
55328;SDS011;41205;44.264;19.884;2023-12-20T10:13:59;316.50;;;203.98;;
55328;SDS011;41205;44.264;19.884;2023-12-20T10:16:28;131.15;;;91.13;;
55328;SDS011;41205;44.264;19.884;2023-12-20T10:18:54;93.05;;;65.13;;
55328;SDS011;41205;44.264;19.884;2023-12-20T10:21:21;142.52;;;100.30;;
55328;SDS011;41205;44.264;19.884;2023-12-20T10:23:48;277.95;;;195.35;;
55328;SDS011;41205;44.264;19.884;2023-12-20T10:26:20;409.17;;;285.33;;
55328;SDS011;41205;44.264;19.884;2023-12-20T10:31:29;291.55;;;211.50;;
55328;SDS011;41205;44.264;19.884;2023-12-20T10:33:57;279.60;;;202.00;;
55328;SDS011;41205;44.264;19.884;2023-12-20T10:36:27;276.20;;;195.90;;
55328;SDS011;41205;44.264;19.884;2023-12-20T10:38:57;177.70;;;123.47;;
55328;SDS011;41205;44.264;19.884;2023-12-20T10:41:30;198.23;;;145.25;;
55328;SDS011;41205;44.264;19.884;2023-12-20T10:46:28;154.48;;;104.78;;
55328;SDS011;41205;44.264;19.884;2023-12-20T10:48:55;282.92;;;198.38;;
55328;SDS011;41205;44.264;19.884;2023-12-20T10:51:22;428.00;;;324.48;;
55328;SDS011;41205;44.264;19.884;2023-12-20T10:53:51;446.23;;;337.05;;
55328;SDS011;41205;44.264;19.884;2023-12-20T10:56:18;372.48;;;290.30;;
55328;SDS011;41205;44.264;19.884;2023-12-20T10:58:46;401.60;;;320.10;;
55328;SDS011;41205;44.264;19.884;2023-12-20T11:01:13;436.15;;;337.15;;
55328;SDS011;41205;44.264;19.884;2023-12-20T11:03:42;608.40;;;449.25;;
55328;SDS011;41205;44.264;19.884;2023-12-20T11:09:28;414.40;;;309.17;;
55328;SDS011;41205;44.264;19.884;2023-12-20T11:12:04;273.00;;;208.18;;
55328;SDS011;41205;44.264;19.884;2023-12-20T11:17:11;261.90;;;200.73;;
55328;SDS011;41205;44.264;19.884;2023-12-20T11:22:26;290.50;;;217.77;;
55328;SDS011;41205;44.264;19.884;2023-12-20T11:24:57;305.33;;;223.70;;
55328;SDS011;41205;44.264;19.884;2023-12-20T11:27:44;281.30;;;208.23;;
55328;SDS011;41205;44.264;19.884;2023-12-20T11:30:34;199.68;;;146.65;;
55328;SDS011;41205;44.264;19.884;2023-12-20T11:33:16;208.02;;;147.10;;
55328;SDS011;41205;44.264;19.884;2023-12-20T11:35:45;169.82;;;107.20;;
55328;SDS011;41205;44.264;19.884;2023-12-20T11:38:12;125.75;;;85.28;;
55328;SDS011;41205;44.264;19.884;2023-12-20T11:40:39;88.03;;;57.80;;
55328;SDS011;41205;44.264;19.884;2023-12-20T11:43:07;72.53;;;51.67;;
55328;SDS011;41205;44.264;19.884;2023-12-20T11:45:32;61.72;;;40.08;;
55328;SDS011;41205;44.264;19.884;2023-12-20T11:48:00;62.53;;;43.20;;
55328;SDS011;41205;44.264;19.884;2023-12-20T11:50:29;100.35;;;68.28;;
55328;SDS011;41205;44.264;19.884;2023-12-20T11:52:55;69.47;;;48.75;;
55328;SDS011;41205;44.264;19.884;2023-12-20T11:55:24;79.15;;;55.08;;
55328;SDS011;41205;44.264;19.884;2023-12-20T11:57:51;110.10;;;71.57;;
55328;SDS011;41205;44.264;19.884;2023-12-20T12:00:17;122.00;;;80.38;;
55328;SDS011;41205;44.264;19.884;2023-12-20T12:02:43;106.93;;;73.88;;
55328;SDS011;41205;44.264;19.884;2023-12-20T12:05:21;214.57;;;136.70;;
55328;SDS011;41205;44.264;19.884;2023-12-20T12:07:47;204.85;;;137.93;;
55328;SDS011;41205;44.264;19.884;2023-12-20T12:10:12;148.73;;;111.88;;
55328;SDS011;41205;44.264;19.884;2023-12-20T12:12:38;161.35;;;125.53;;
55328;SDS011;41205;44.264;19.884;2023-12-20T12:15:05;150.35;;;101.20;;
55328;SDS011;41205;44.264;19.884;2023-12-20T12:17:31;149.27;;;118.15;;
55328;SDS011;41205;44.264;19.884;2023-12-20T12:20:05;242.13;;;186.75;;
55328;SDS011;41205;44.264;19.884;2023-12-20T12:22:31;140.55;;;113.53;;
55328;SDS011;41205;44.264;19.884;2023-12-20T12:24:59;85.53;;;69.53;;
55328;SDS011;41205;44.264;19.884;2023-12-20T12:27:34;71.57;;;49.75;;
55328;SDS011;41205;44.264;19.884;2023-12-20T12:30:03;79.22;;;58.28;;
55328;SDS011;41205;44.264;19.884;2023-12-20T12:32:32;113.20;;;90.93;;
55328;SDS011;41205;44.264;19.884;2023-12-20T12:34:58;77.00;;;55.92;;
55328;SDS011;41205;44.264;19.884;2023-12-20T12:37:24;76.18;;;59.95;;
55328;SDS011;41205;44.264;19.884;2023-12-20T12:39:52;72.82;;;53.47;;
55328;SDS011;41205;44.264;19.884;2023-12-20T12:42:18;71.40;;;52.08;;
55328;SDS011;41205;44.264;19.884;2023-12-20T12:44:45;74.93;;;56.28;;
55328;SDS011;41205;44.264;19.884;2023-12-20T12:47:11;111.00;;;80.82;;
55328;SDS011;41205;44.264;19.884;2023-12-20T12:49:37;327.23;;;247.80;;
55328;SDS011;41205;44.264;19.884;2023-12-20T12:52:02;310.25;;;223.60;;
55328;SDS011;41205;44.264;19.884;2023-12-20T12:54:28;334.58;;;252.20;;
55328;SDS011;41205;44.264;19.884;2023-12-20T12:56:54;433.55;;;293.67;;
55328;SDS011;41205;44.264;19.884;2023-12-20T12:59:20;427.98;;;289.00;;
55328;SDS011;41205;44.264;19.884;2023-12-20T13:01:46;399.27;;;285.85;;
55328;SDS011;41205;44.264;19.884;2023-12-20T13:04:11;292.65;;;212.82;;
55328;SDS011;41205;44.264;19.884;2023-12-20T13:06:37;229.40;;;164.40;;
55328;SDS011;41205;44.264;19.884;2023-12-20T13:09:03;233.25;;;170.20;;
55328;SDS011;41205;44.264;19.884;2023-12-20T13:11:30;291.92;;;195.45;;
55328;SDS011;41205;44.264;19.884;2023-12-20T13:13:56;287.55;;;202.35;;
55328;SDS011;41205;44.264;19.884;2023-12-20T13:16:26;286.02;;;207.30;;
55328;SDS011;41205;44.264;19.884;2023-12-20T13:18:52;292.80;;;215.15;;
55328;SDS011;41205;44.264;19.884;2023-12-20T13:21:17;313.40;;;243.60;;
55328;SDS011;41205;44.264;19.884;2023-12-20T13:23:44;309.63;;;235.60;;
55328;SDS011;41205;44.264;19.884;2023-12-20T13:26:10;304.50;;;228.73;;
55328;SDS011;41205;44.264;19.884;2023-12-20T13:28:36;307.55;;;235.43;;
55328;SDS011;41205;44.264;19.884;2023-12-20T13:31:02;294.92;;;225.85;;
55328;SDS011;41205;44.264;19.884;2023-12-20T13:33:28;276.25;;;211.57;;
55328;SDS011;41205;44.264;19.884;2023-12-20T13:35:53;231.93;;;169.90;;
55328;SDS011;41205;44.264;19.884;2023-12-20T13:38:19;95.53;;;64.53;;
55328;SDS011;41205;44.264;19.884;2023-12-20T13:40:45;70.95;;;49.45;;
55328;SDS011;41205;44.264;19.884;2023-12-20T13:43:10;86.45;;;58.38;;
55328;SDS011;41205;44.264;19.884;2023-12-20T13:45:37;42.17;;;29.35;;
55328;SDS011;41205;44.264;19.884;2023-12-20T13:48:03;223.95;;;132.43;;
55328;SDS011;41205;44.264;19.884;2023-12-20T13:50:30;34.67;;;25.38;;
55328;SDS011;41205;44.264;19.884;2023-12-20T13:52:55;72.03;;;47.85;;
55328;SDS011;41205;44.264;19.884;2023-12-20T13:55:21;220.65;;;137.43;;
55328;SDS011;41205;44.264;19.884;2023-12-20T13:57:50;44.58;;;29.48;;
55328;SDS011;41205;44.264;19.884;2023-12-20T14:00:16;42.45;;;27.48;;
55328;SDS011;41205;44.264;19.884;2023-12-20T14:02:42;66.03;;;45.65;;
55328;SDS011;41205;44.264;19.884;2023-12-20T14:05:08;39.58;;;26.90;;
55328;SDS011;41205;44.264;19.884;2023-12-20T14:07:35;21.23;;;15.32;;
55328;SDS011;41205;44.264;19.884;2023-12-20T14:10:01;22.48;;;14.88;;
55328;SDS011;41205;44.264;19.884;2023-12-20T14:12:27;27.45;;;18.35;;
55328;SDS011;41205;44.264;19.884;2023-12-20T14:14:53;22.70;;;15.90;;